createdAt,value
2018-12-15T00:00:58.162Z,84.51
2018-12-15T00:03:30.327Z,84.23
2018-12-15T00:06:02.640Z,84.56
2018-12-15T00:08:35.082Z,84.96
2018-12-15T00:11:07.993Z,84.90
2018-12-15T00:13:40.365Z,85.27
2018-12-15T00:16:13.363Z,84.52
2018-12-15T00:18:44.357Z,84.53
2018-12-15T00:21:14.532Z,85.21
2018-12-15T00:23:44.575Z,85.33
2018-12-15T00:26:14.767Z,85.07
2018-12-15T00:28:44.911Z,85.15
2018-12-15T00:31:16.795Z,84.42
2018-12-15T00:33:49.086Z,85.05
2018-12-15T00:36:21.264Z,85.28
2018-12-15T00:38:53.026Z,84.59
2018-12-15T00:41:23.066Z,84.67
2018-12-15T00:43:53.128Z,85.31
2018-12-15T00:46:23.345Z,85.66
2018-12-15T00:48:53.954Z,84.95
2018-12-15T00:51:24.198Z,85.46
2018-12-15T00:53:54.462Z,85.57
2018-12-15T00:56:24.987Z,85.23
2018-12-15T00:58:55.658Z,84.97
2018-12-15T01:01:26.062Z,85.75
2018-12-15T01:03:56.253Z,84.83
2018-12-15T01:06:26.565Z,85.63
2018-12-15T01:08:57.029Z,85.04
2018-12-15T01:11:27.165Z,84.90
2018-12-15T01:14:01.256Z,84.74
2018-12-15T01:16:32.717Z,85.34
2018-12-15T01:19:02.811Z,85.40
2018-12-15T01:21:32.969Z,85.71
2018-12-15T01:24:02.994Z,85.94
2018-12-15T01:26:33.057Z,86.00
2018-12-15T01:29:03.252Z,86.16
2018-12-15T01:31:33.479Z,85.86
2018-12-15T01:34:03.792Z,85.72
2018-12-15T01:36:33.967Z,86.06
2018-12-15T01:39:06.854Z,85.80
2018-12-15T01:41:37.213Z,86.42
2018-12-15T01:44:07.423Z,86.12
2018-12-15T01:46:37.678Z,85.79
2018-12-15T01:49:07.768Z,85.98
2018-12-15T01:51:37.934Z,85.84
2018-12-15T01:54:08.096Z,85.37
2018-12-15T01:56:38.277Z,85.36
2018-12-15T01:59:08.622Z,85.67
2018-12-15T02:01:38.810Z,85.86
2018-12-15T02:04:08.812Z,85.48
2018-12-15T02:06:39.125Z,85.86
2018-12-15T02:09:09.284Z,85.55
2018-12-15T02:11:39.649Z,85.74
2018-12-15T02:14:21.914Z,86.14
2018-12-15T02:19:52.864Z,85.80
2018-12-15T02:22:23.128Z,85.94
2018-12-15T02:24:53.160Z,85.33
2018-12-15T02:27:23.338Z,84.96
2018-12-15T02:29:53.380Z,85.99
2018-12-15T02:32:23.644Z,85.88
2018-12-15T02:34:53.667Z,85.49
2018-12-15T02:37:23.748Z,85.75
2018-12-15T02:39:53.968Z,85.19
2018-12-15T02:42:23.997Z,84.93
2018-12-15T02:44:54.087Z,85.26
2018-12-15T02:47:24.133Z,85.27
2018-12-15T02:49:54.275Z,84.97
2018-12-15T02:52:24.754Z,85.59
2018-12-15T02:54:54.763Z,85.48
2018-12-15T02:57:25.029Z,85.68
2018-12-15T03:02:55.837Z,85.81
2018-12-15T03:05:26.097Z,85.31
2018-12-15T03:07:56.379Z,85.18
2018-12-15T03:10:26.440Z,84.99
2018-12-15T03:12:56.476Z,85.79
2018-12-15T03:15:26.713Z,85.63
2018-12-15T03:17:56.807Z,84.95
2018-12-15T03:20:29.964Z,85.08
2018-12-15T03:23:00.400Z,85.38
2018-12-15T03:25:30.563Z,84.85
2018-12-15T03:28:01.872Z,85.50
2018-12-15T03:30:32.279Z,86.30
2018-12-15T03:33:03.238Z,85.76
2018-12-15T03:35:33.420Z,85.91
2018-12-15T03:38:04.629Z,86.59
2018-12-15T03:40:34.673Z,86.40
2018-12-15T03:43:04.734Z,85.59
2018-12-15T03:45:34.882Z,86.00
2018-12-15T03:48:05.185Z,86.11
2018-12-15T03:50:35.384Z,86.35
2018-12-15T03:53:05.798Z,86.02
2018-12-15T03:55:35.847Z,86.20
2018-12-15T03:58:06.283Z,86.02
2018-12-15T04:00:36.705Z,85.33
2018-12-15T04:03:11.004Z,85.70
2018-12-15T04:05:41.036Z,85.29
2018-12-15T04:08:11.068Z,85.34
2018-12-15T04:10:41.389Z,85.66
2018-12-15T04:13:11.601Z,85.52
2018-12-15T04:15:41.633Z,84.91
2018-12-15T04:18:12.200Z,85.75
2018-12-15T04:20:42.446Z,85.58
2018-12-15T04:23:12.476Z,86.08
2018-12-15T04:25:42.529Z,86.52
2018-12-15T04:28:12.700Z,86.50
2018-12-15T04:30:43.575Z,86.84
2018-12-15T04:33:13.750Z,86.97
2018-12-15T04:35:43.900Z,86.26
2018-12-15T04:38:13.915Z,86.25
2018-12-15T04:40:44.435Z,85.66
2018-12-15T04:43:14.647Z,84.98
2018-12-15T04:45:45.561Z,84.63
2018-12-15T04:48:15.719Z,85.48
2018-12-15T04:50:45.769Z,85.32
2018-12-15T04:53:16.005Z,85.47
2018-12-15T04:55:46.324Z,85.37
2018-12-15T04:58:16.459Z,84.67
2018-12-15T05:00:47.190Z,84.51
2018-12-15T05:03:17.285Z,85.38
2018-12-15T05:05:47.601Z,85.91
2018-12-15T05:08:17.943Z,85.47
2018-12-15T05:10:48.064Z,86.04
2018-12-15T05:13:18.876Z,86.10
2018-12-15T05:15:48.896Z,85.67
2018-12-15T05:18:18.921Z,86.17
2018-12-15T05:20:49.006Z,86.28
2018-12-15T05:23:19.040Z,86.00
2018-12-15T05:25:49.103Z,85.77
2018-12-15T05:28:19.997Z,85.81
2018-12-15T05:30:51.371Z,85.36
2018-12-15T05:33:21.437Z,85.22
2018-12-15T05:35:51.553Z,85.24
2018-12-15T05:38:21.718Z,84.97
2018-12-15T05:40:51.773Z,84.85
2018-12-15T05:43:21.809Z,84.72
2018-12-15T05:45:51.904Z,85.00
2018-12-15T05:48:25.094Z,84.81
2018-12-15T05:50:54.474Z,82.78
2018-12-15T05:53:24.472Z,83.43
2018-12-15T05:55:54.678Z,83.19
2018-12-15T05:58:24.726Z,82.53
2018-12-15T06:00:54.886Z,82.93
2018-12-15T06:03:24.925Z,83.29
2018-12-15T06:05:55.137Z,83.51
2018-12-15T06:08:25.138Z,83.89
2018-12-15T06:10:55.413Z,83.73
2018-12-15T06:13:26.941Z,83.11
2018-12-15T06:15:57.028Z,83.58
2018-12-15T06:18:31.664Z,83.96
2018-12-15T06:20:59.417Z,83.92
2018-12-15T06:23:29.648Z,83.23
2018-12-15T06:25:59.892Z,83.57
2018-12-15T06:28:29.937Z,83.30
2018-12-15T06:31:00.868Z,83.59
2018-12-15T06:33:30.897Z,83.66
2018-12-15T06:36:01.125Z,83.75
2018-12-15T06:38:31.204Z,83.74
2018-12-15T06:41:01.505Z,84.82
2018-12-15T06:43:31.955Z,83.94
2018-12-15T06:46:02.100Z,85.01
2018-12-15T06:48:37.989Z,84.40
2018-12-15T06:51:26.650Z,84.70
2018-12-15T06:53:56.869Z,84.83
2018-12-15T06:56:27.526Z,85.67
2018-12-15T06:58:57.788Z,86.08
2018-12-15T07:01:32.955Z,85.65
2018-12-15T07:04:06.772Z,86.02
2018-12-15T07:06:37.220Z,86.47
2018-12-15T07:09:07.810Z,86.84
2018-12-15T07:11:38.773Z,86.68
2018-12-15T07:14:09.071Z,86.26
2018-12-15T07:16:39.133Z,86.21
2018-12-15T07:19:09.328Z,86.37
2018-12-15T07:21:39.493Z,85.93
2018-12-15T07:24:09.657Z,85.51
2018-12-15T07:26:39.884Z,85.44
2018-12-15T07:29:10.322Z,84.46
2018-12-15T07:31:40.361Z,85.08
2018-12-15T07:34:10.632Z,84.86
2018-12-15T07:36:40.837Z,83.58
2018-12-15T07:39:11.064Z,83.85
2018-12-15T07:41:41.089Z,84.19
2018-12-15T07:44:11.161Z,84.23
2018-12-15T07:46:57.345Z,84.81
2018-12-15T07:49:27.556Z,85.49
2018-12-15T07:51:57.754Z,85.02
2018-12-15T07:54:27.921Z,85.29
2018-12-15T07:56:58.221Z,85.21
2018-12-15T07:59:28.281Z,85.56
2018-12-15T08:01:58.374Z,85.38
2018-12-15T08:04:28.584Z,86.16
2018-12-15T08:06:58.696Z,86.30
2018-12-15T08:09:28.800Z,86.50
2018-12-15T08:12:04.378Z,85.88
2018-12-15T08:14:34.431Z,85.60
2018-12-15T08:17:04.925Z,85.70
2018-12-15T08:19:35.205Z,86.22
2018-12-15T08:22:05.353Z,85.85
2018-12-15T08:24:37.702Z,86.34
2018-12-15T08:27:07.890Z,86.63
2018-12-15T08:29:39.114Z,86.37
2018-12-15T08:32:09.170Z,85.68
2018-12-15T08:34:39.209Z,86.44
2018-12-15T08:37:09.482Z,86.24
2018-12-15T08:39:39.507Z,86.03
2018-12-15T08:42:09.564Z,84.75
2018-12-15T08:44:39.600Z,84.13
2018-12-15T08:47:09.741Z,84.78
2018-12-15T08:49:40.077Z,85.58
2018-12-15T08:52:10.297Z,86.23
2018-12-15T08:54:40.577Z,85.55
2018-12-15T08:57:14.867Z,84.58
2018-12-15T09:02:45.855Z,85.44
2018-12-15T09:05:17.714Z,85.59
2018-12-15T09:07:49.028Z,85.59
2018-12-15T09:10:19.088Z,85.24
2018-12-15T09:12:49.121Z,86.00
2018-12-15T09:15:19.205Z,85.72
2018-12-15T09:17:49.247Z,85.45
2018-12-15T09:20:19.581Z,85.12
2018-12-15T09:22:49.629Z,84.64
2018-12-15T09:25:19.803Z,84.35
2018-12-15T09:27:50.107Z,83.57
2018-12-15T09:30:20.604Z,83.42
2018-12-15T09:32:50.954Z,82.97
2018-12-15T09:35:21.205Z,83.44
2018-12-15T09:37:51.252Z,84.39
2018-12-15T09:40:21.329Z,84.99
2018-12-15T09:42:51.829Z,85.46
2018-12-15T09:45:29.142Z,84.61
2018-12-15T09:48:00.432Z,84.20
2018-12-15T09:50:30.444Z,83.23
2018-12-15T09:53:01.580Z,83.88
2018-12-15T09:55:31.981Z,82.74
2018-12-15T09:58:02.425Z,82.83
2018-12-15T10:00:32.742Z,83.06
2018-12-15T10:03:05.071Z,81.96
2018-12-15T10:05:35.233Z,82.43
2018-12-15T10:08:05.747Z,82.45
2018-12-15T10:13:36.063Z,82.77
2018-12-15T10:16:06.164Z,82.78
2018-12-15T10:18:36.360Z,82.63
2018-12-15T10:21:06.464Z,82.50
2018-12-15T10:23:36.493Z,82.84
2018-12-15T10:26:06.705Z,82.54
2018-12-15T10:28:36.762Z,81.99
2018-12-15T10:31:12.455Z,81.10
2018-12-15T10:33:42.669Z,81.28
2018-12-15T10:36:13.068Z,81.80
2018-12-15T10:38:43.576Z,80.12
2018-12-15T10:41:14.284Z,79.61
2018-12-15T10:43:45.567Z,80.97
2018-12-15T10:46:15.809Z,80.54
2018-12-15T10:48:45.818Z,80.75
2018-12-15T10:51:15.917Z,80.87
2018-12-15T10:53:45.992Z,80.33
2018-12-15T10:56:16.186Z,79.56
2018-12-15T10:58:46.232Z,78.59
2018-12-15T11:01:23.006Z,78.21
2018-12-15T11:03:53.126Z,78.18
2018-12-15T11:06:23.187Z,77.49
2018-12-15T11:08:53.328Z,77.64
2018-12-15T11:11:23.484Z,77.76
2018-12-15T11:13:53.729Z,78.21
2018-12-15T11:16:24.622Z,78.51
2018-12-15T11:18:56.882Z,78.56
2018-12-15T11:21:28.956Z,77.86
2018-12-15T11:24:03.918Z,77.87
2018-12-15T11:26:35.676Z,78.46
2018-12-15T11:29:05.932Z,77.97
2018-12-15T11:31:36.512Z,78.41
2018-12-15T11:34:06.763Z,77.98
2018-12-15T11:36:36.870Z,78.29
2018-12-15T11:39:08.429Z,77.26
2018-12-15T11:41:38.664Z,76.59
2018-12-15T11:44:08.709Z,76.38
2018-12-15T11:46:38.825Z,75.92
2018-12-15T11:49:09.812Z,74.63
2018-12-15T11:51:40.116Z,75.92
2018-12-15T11:54:10.428Z,75.60
2018-12-15T11:56:41.040Z,75.32
2018-12-15T11:59:11.108Z,74.88
2018-12-15T12:01:41.390Z,74.30
2018-12-15T12:04:11.953Z,73.79
2018-12-15T12:06:42.241Z,73.47
2018-12-15T12:09:12.347Z,73.84
2018-12-15T12:11:42.481Z,74.89
2018-12-15T12:14:12.565Z,74.01
2018-12-15T12:16:42.751Z,75.43
2018-12-15T12:19:12.810Z,74.62
2018-12-15T12:21:43.125Z,75.62
2018-12-15T12:24:13.183Z,75.63
2018-12-15T12:26:43.449Z,76.50
2018-12-15T12:29:13.787Z,76.07
2018-12-15T12:31:43.869Z,76.54
2018-12-15T12:34:13.892Z,76.02
2018-12-15T12:36:44.767Z,75.18
2018-12-15T12:39:16.007Z,74.59
2018-12-15T12:41:47.653Z,75.17
2018-12-15T12:44:17.683Z,74.40
2018-12-15T12:46:48.539Z,72.84
2018-12-15T12:49:20.651Z,72.29
2018-12-15T12:51:53.672Z,72.44
2018-12-15T12:54:25.971Z,71.27
2018-12-15T12:57:00.096Z,72.30
2018-12-15T12:59:34.429Z,72.33
2018-12-15T13:02:06.618Z,72.47
2018-12-15T13:04:39.569Z,72.85
2018-12-15T13:07:12.145Z,72.67
2018-12-15T13:09:42.824Z,72.59
2018-12-15T13:12:15.685Z,72.52
2018-12-15T13:14:45.777Z,73.18
2018-12-15T13:17:15.922Z,72.42
2018-12-15T13:19:45.961Z,73.92
2018-12-15T13:22:15.981Z,73.58
2018-12-15T13:24:46.025Z,73.34
2018-12-15T13:27:16.054Z,73.01
2018-12-15T13:29:46.418Z,72.04
2018-12-15T13:32:16.461Z,73.04
2018-12-15T13:34:46.513Z,73.79
2018-12-15T13:37:16.652Z,73.83
2018-12-15T13:39:46.685Z,74.34
2018-12-15T13:42:16.825Z,74.76
2018-12-15T13:44:46.935Z,74.75
2018-12-15T13:47:16.986Z,75.27
2018-12-15T13:49:47.294Z,75.67
2018-12-15T13:52:17.417Z,76.05
2018-12-15T13:54:47.462Z,75.53
2018-12-15T13:57:17.485Z,76.82
2018-12-15T13:59:47.676Z,76.14
2018-12-15T14:02:18.798Z,76.35
2018-12-15T14:04:48.844Z,76.44
2018-12-15T14:07:18.876Z,76.31
2018-12-15T14:09:49.073Z,77.56
2018-12-15T14:12:19.206Z,77.68
2018-12-15T14:14:49.326Z,77.50
2018-12-15T14:17:19.397Z,77.83
2018-12-15T14:19:49.435Z,78.73
2018-12-15T14:22:19.472Z,78.29
2018-12-15T14:24:49.540Z,79.52
2018-12-15T14:27:19.582Z,79.24
2018-12-15T14:29:49.625Z,79.79
2018-12-15T14:32:21.650Z,79.13
2018-12-15T14:34:52.001Z,80.09
2018-12-15T14:37:22.537Z,80.62
2018-12-15T14:39:52.911Z,80.73
2018-12-15T14:42:23.219Z,80.63
2018-12-15T14:44:53.958Z,80.17
2018-12-15T14:47:24.330Z,80.21
2018-12-15T14:49:54.390Z,79.70
2018-12-15T14:52:24.458Z,79.34
2018-12-15T14:54:54.702Z,80.15
2018-12-15T14:57:25.560Z,79.99
2018-12-15T14:59:56.303Z,79.07
2018-12-15T15:02:26.619Z,79.93
2018-12-15T15:04:58.569Z,79.55
2018-12-15T15:07:30.798Z,79.18
2018-12-15T15:10:00.896Z,78.55
2018-12-15T15:12:30.969Z,79.36
2018-12-15T15:15:00.993Z,78.62
2018-12-15T15:17:31.004Z,78.41
2018-12-15T15:20:01.176Z,78.51
2018-12-15T15:22:31.244Z,78.32
2018-12-15T15:25:01.281Z,79.11
2018-12-15T15:27:31.318Z,79.51
2018-12-15T15:36:02.832Z,78.76
2018-12-15T15:38:33.093Z,79.55
2018-12-15T15:41:03.128Z,79.18
2018-12-15T15:43:33.628Z,79.08
2018-12-15T15:46:03.961Z,79.36
2018-12-15T15:48:35.517Z,79.49
2018-12-15T15:51:05.612Z,80.04
2018-12-15T15:53:35.834Z,79.72
2018-12-15T15:56:05.866Z,79.65
2018-12-15T15:58:35.887Z,79.22
2018-12-15T16:01:05.926Z,80.03
2018-12-15T16:03:36.312Z,79.73
2018-12-15T16:06:06.457Z,78.55
2018-12-15T16:08:36.485Z,79.95
2018-12-15T16:11:06.762Z,80.55
2018-12-15T16:13:37.044Z,79.29
2018-12-15T16:16:44.349Z,80.05
2018-12-15T16:22:16.600Z,80.48
2018-12-15T16:24:47.065Z,80.73
2018-12-15T16:27:17.168Z,81.62
2018-12-15T16:29:47.200Z,82.07
2018-12-15T16:32:17.471Z,81.69
2018-12-15T16:34:47.575Z,82.13
2018-12-15T16:37:17.775Z,81.83
2018-12-15T16:39:47.814Z,82.13
2018-12-15T16:42:17.860Z,82.19
2018-12-15T16:44:48.213Z,81.22
2018-12-15T16:47:18.489Z,82.35
2018-12-15T16:49:48.557Z,81.76
2018-12-15T16:52:19.054Z,81.81
2018-12-15T16:54:49.434Z,81.09
2018-12-15T16:57:19.464Z,80.84
2018-12-15T16:59:49.573Z,81.12
2018-12-15T17:02:19.630Z,81.26
2018-12-15T17:04:49.823Z,80.59
2018-12-15T17:07:20.778Z,80.69
2018-12-15T17:09:51.822Z,81.15
2018-12-15T17:12:21.985Z,80.91
2018-12-15T17:14:53.117Z,80.43
2018-12-15T17:17:23.156Z,81.06
2018-12-15T17:19:53.243Z,81.75
2018-12-15T17:22:23.310Z,80.90
2018-12-15T17:24:53.411Z,81.28
2018-12-15T17:27:30.555Z,81.49
2018-12-15T17:30:00.586Z,80.54
2018-12-15T17:32:31.117Z,80.85
2018-12-15T17:35:01.449Z,79.87
2018-12-15T17:37:31.865Z,80.78
2018-12-15T17:40:02.174Z,80.87
2018-12-15T17:42:32.913Z,80.24
2018-12-15T17:45:03.240Z,79.53
2018-12-15T17:47:33.277Z,80.34
2018-12-15T17:50:03.412Z,79.49
2018-12-15T17:52:33.441Z,79.68
2018-12-15T17:55:04.061Z,80.57
2018-12-15T17:57:35.899Z,80.00
2018-12-15T18:00:08.938Z,79.13
2018-12-15T18:02:39.365Z,79.54
2018-12-15T18:05:09.579Z,79.94
2018-12-15T18:07:39.791Z,80.62
2018-12-15T18:10:10.020Z,80.00
2018-12-15T18:12:40.201Z,79.61
2018-12-15T18:15:10.496Z,80.57
2018-12-15T18:17:40.617Z,80.38
2018-12-15T18:20:11.081Z,80.08
2018-12-15T18:22:41.204Z,80.25
2018-12-15T18:25:11.435Z,79.70
2018-12-15T18:27:41.668Z,79.71
2018-12-15T18:30:12.803Z,78.48
2018-12-15T18:32:42.944Z,78.43
2018-12-15T18:35:13.499Z,78.71
2018-12-15T18:37:43.606Z,79.32
2018-12-15T18:40:13.767Z,78.06
2018-12-15T18:42:44.114Z,78.11
2018-12-15T18:45:14.975Z,79.27
2018-12-15T18:47:45.488Z,79.30
2018-12-15T18:50:15.600Z,79.43
2018-12-15T18:52:45.941Z,79.18
2018-12-15T18:55:16.273Z,78.77
2018-12-15T18:57:46.516Z,80.44
2018-12-15T19:03:18.235Z,78.86
2018-12-15T19:05:49.489Z,79.46
2018-12-15T19:08:19.624Z,79.78
2018-12-15T19:10:50.021Z,79.16
2018-12-15T19:13:20.170Z,77.79
2018-12-15T19:15:50.309Z,78.78
2018-12-15T19:18:20.667Z,79.24
2018-12-15T19:20:50.739Z,79.55
2018-12-15T19:23:21.118Z,78.78
2018-12-15T19:25:51.130Z,79.97
2018-12-15T19:28:21.276Z,79.09
2018-12-15T19:30:53.282Z,78.31
2018-12-15T19:33:23.433Z,77.88
2018-12-15T19:35:53.517Z,77.67
2018-12-15T19:38:23.568Z,78.02
2018-12-15T19:40:53.652Z,79.05
2018-12-15T19:43:23.711Z,79.13
2018-12-15T19:48:53.798Z,78.16
2018-12-15T19:51:29.571Z,78.21
2018-12-15T19:53:56.315Z,78.84
2018-12-15T19:59:27.159Z,79.04
2018-12-15T20:01:57.468Z,79.10
2018-12-15T20:04:27.526Z,79.68
2018-12-15T20:06:57.711Z,80.01
2018-12-15T20:09:28.057Z,79.73
2018-12-15T20:11:58.406Z,79.21
2018-12-15T20:14:29.326Z,79.53
2018-12-15T20:16:59.423Z,80.56
2018-12-15T20:19:29.858Z,80.67
2018-12-15T20:21:59.915Z,81.24
2018-12-15T20:24:32.493Z,80.57
2018-12-15T20:27:02.548Z,80.83
2018-12-15T20:29:32.709Z,80.51
2018-12-15T20:32:02.782Z,80.76
2018-12-15T20:34:34.585Z,79.62
2018-12-15T20:37:04.712Z,79.10
2018-12-15T20:39:35.077Z,79.26
2018-12-15T20:42:05.556Z,78.86
2018-12-15T20:44:41.690Z,79.64
2018-12-15T20:47:09.512Z,80.17
2018-12-15T20:49:39.589Z,80.81
2018-12-15T20:52:09.701Z,78.86
2018-12-15T20:54:39.736Z,80.11
2018-12-15T20:57:10.156Z,79.55
2018-12-15T20:59:46.715Z,79.40
2018-12-15T21:02:17.743Z,79.68
2018-12-15T21:04:48.781Z,79.19
2018-12-15T21:07:18.861Z,77.69
2018-12-15T21:09:53.288Z,78.44
2018-12-15T21:12:23.452Z,78.11
2018-12-15T21:14:53.895Z,78.72
2018-12-15T21:17:24.115Z,78.27
2018-12-15T21:19:54.762Z,79.06
2018-12-15T21:22:25.078Z,79.28
2018-12-15T21:24:55.558Z,77.70
2018-12-15T21:27:25.612Z,78.55
2018-12-15T21:29:55.630Z,78.21
2018-12-15T21:32:25.842Z,79.44
2018-12-15T21:34:56.211Z,79.41
2018-12-15T21:37:26.457Z,79.25
2018-12-15T21:39:56.948Z,78.68
2018-12-15T21:42:27.258Z,78.95
2018-12-15T21:44:57.525Z,78.49
2018-12-15T21:53:33.368Z,79.36
2018-12-15T21:56:03.580Z,79.57
2018-12-15T21:58:33.639Z,79.52
2018-12-15T22:01:03.680Z,78.79
2018-12-15T22:03:33.760Z,78.58
2018-12-15T22:06:04.121Z,78.67
2018-12-15T22:08:34.177Z,76.84
2018-12-15T22:11:04.302Z,76.74
2018-12-15T22:13:34.452Z,77.11
2018-12-15T22:16:04.561Z,75.70
2018-12-15T22:18:35.452Z,76.20
2018-12-15T22:21:27.824Z,76.30
2018-12-15T22:23:57.876Z,76.30
2018-12-15T22:26:28.003Z,76.67
2018-12-15T22:28:58.061Z,77.52
2018-12-15T22:31:28.145Z,76.94
2018-12-15T22:33:58.262Z,77.40
2018-12-15T22:36:28.439Z,76.12
2018-12-15T22:38:58.486Z,75.64
2018-12-15T22:41:28.633Z,75.66
2018-12-15T22:43:58.645Z,75.55
2018-12-15T22:46:28.764Z,76.29
2018-12-15T22:48:58.934Z,77.22
2018-12-15T22:51:28.968Z,77.79
2018-12-15T22:53:59.128Z,78.69
2018-12-15T22:56:29.208Z,78.17
2018-12-15T22:58:59.369Z,78.93
2018-12-15T23:01:34.065Z,78.25
2018-12-15T23:04:04.192Z,77.48
2018-12-15T23:06:34.494Z,76.88
2018-12-15T23:09:07.043Z,76.46
2018-12-15T23:11:37.107Z,77.87
2018-12-15T23:14:07.114Z,77.84
2018-12-15T23:16:37.344Z,77.97
2018-12-15T23:19:07.416Z,78.82
2018-12-15T23:21:37.561Z,77.89
2018-12-15T23:24:07.907Z,78.36
2018-12-15T23:26:38.118Z,78.04
2018-12-15T23:29:08.486Z,78.04
2018-12-15T23:31:38.569Z,77.92
2018-12-15T23:34:08.604Z,78.74
2018-12-15T23:36:38.872Z,78.10
2018-12-15T23:39:09.114Z,76.28
2018-12-15T23:41:39.125Z,77.71
2018-12-15T23:44:09.165Z,78.04
2018-12-15T23:46:39.629Z,77.37
2018-12-15T23:49:09.736Z,76.96
2018-12-15T23:51:39.989Z,76.20
2018-12-15T23:54:10.119Z,77.09
2018-12-15T23:56:40.162Z,76.43
2018-12-15T23:59:10.224Z,77.47
